createdAt,value
2019-04-01T01:56:22.519Z,-0.77
2019-04-01T01:59:14.060Z,-0.86
2019-04-01T02:00:04.862Z,-0.83
2019-04-01T02:01:04.807Z,-0.78
2019-04-01T02:02:05.510Z,-0.72
2019-04-01T02:03:05.600Z,-0.77
2019-04-01T02:04:05.136Z,-0.75
2019-04-01T02:05:05.742Z,-0.73
2019-04-01T02:53:40.745Z,-1.48
2019-04-01T03:15:42.115Z,-1.69
2019-04-01T03:16:42.110Z,-1.72
2019-04-01T03:17:42.112Z,-1.74
2019-04-01T03:18:42.077Z,-1.74
2019-04-01T03:19:54.281Z,-1.75
2019-04-01T03:20:42.745Z,-1.74
2019-04-01T03:21:46.835Z,-1.82
2019-04-01T03:26:15.251Z,-1.81
2019-04-01T03:27:07.330Z,-1.85
2019-04-01T03:28:07.310Z,-1.88
2019-04-01T03:44:40.890Z,-1.93
2019-04-01T03:45:40.782Z,-2.13
2019-04-01T03:46:40.745Z,-2.10
2019-04-01T03:47:40.735Z,-2.06
2019-04-01T03:48:40.765Z,-2.14
2019-04-01T03:49:40.763Z,-2.16
2019-04-01T03:50:41.559Z,-2.13
2019-04-01T04:10:46.500Z,-1.98
2019-04-01T04:19:50.271Z,-1.81
2019-04-01T04:20:50.230Z,-1.85
2019-04-01T04:21:50.197Z,-1.93
2019-04-01T04:22:50.196Z,-1.93
2019-04-01T04:23:50.154Z,-1.98
2019-04-01T04:24:50.158Z,-1.99
2019-04-01T04:25:50.159Z,-2.02
2019-04-01T04:26:50.124Z,-2.00
2019-04-01T04:27:50.126Z,-2.02
2019-04-01T04:28:50.153Z,-2.06
2019-04-01T04:29:50.240Z,-2.20
2019-04-01T04:30:50.192Z,-2.26
2019-04-01T04:31:50.077Z,-2.36
2019-04-01T04:32:50.065Z,-2.36
2019-04-01T04:33:50.086Z,-2.40
2019-04-01T04:34:50.054Z,-2.35
2019-04-01T04:35:50.058Z,-2.36
2019-04-01T04:36:50.033Z,-2.36
2019-04-01T04:37:50.037Z,-2.35
2019-04-01T04:38:50.005Z,-2.42
2019-04-01T04:39:49.995Z,-2.47
2019-04-01T04:40:50.007Z,-2.56
2019-04-01T04:41:49.973Z,-2.43
2019-04-01T04:42:49.981Z,-2.50
2019-04-01T04:43:49.950Z,-2.42
2019-04-01T04:44:49.943Z,-2.38
2019-04-01T04:45:49.955Z,-2.39
2019-04-01T04:46:49.920Z,-2.35
2019-04-01T04:47:49.912Z,-2.36
2019-04-01T04:48:49.903Z,-2.33
2019-04-01T04:49:49.887Z,-2.35
2019-04-01T04:50:49.890Z,-2.26
2019-04-01T04:51:49.867Z,-2.24
2019-04-01T04:52:49.857Z,-2.20
2019-04-01T04:53:49.847Z,-2.18
2019-04-01T04:54:49.843Z,-2.14
2019-04-01T04:55:49.839Z,-2.06
2019-04-01T04:56:49.814Z,-2.20
2019-04-01T04:57:49.805Z,-2.16
2019-04-01T04:58:49.794Z,-2.08
2019-04-01T04:59:49.787Z,-2.13
2019-04-01T05:00:49.786Z,-2.06
2019-04-01T05:01:49.764Z,-2.00
2019-04-01T05:02:49.756Z,-1.98
2019-04-01T05:03:49.743Z,-1.93
2019-04-01T05:04:49.734Z,-1.85
2019-04-01T05:05:49.734Z,-1.88
2019-04-01T05:06:49.725Z,-1.93
2019-04-01T05:07:49.702Z,-1.90
2019-04-01T05:08:49.693Z,-1.82
2019-04-01T05:09:49.681Z,-1.80
2019-04-01T05:10:49.683Z,-1.88
2019-04-01T05:11:49.662Z,-1.80
2019-04-01T05:12:49.654Z,-1.82
2019-04-01T05:13:49.642Z,-1.78
2019-04-01T05:14:49.630Z,-1.80
2019-04-01T05:15:49.622Z,-1.81
2019-04-01T05:16:49.624Z,-1.77
2019-04-01T05:17:49.600Z,-1.78
2019-04-01T05:18:49.591Z,-1.69
2019-04-01T05:19:49.579Z,-1.72
2019-04-01T05:20:49.568Z,-1.69
2019-04-01T05:21:49.568Z,-1.74
2019-04-01T05:22:49.550Z,-1.72
2019-04-01T05:23:49.537Z,-1.67
2019-04-01T05:24:49.531Z,-1.57
2019-04-01T05:25:49.518Z,-1.62
2019-04-01T05:26:49.517Z,-1.62
2019-04-01T05:27:49.504Z,-1.57
2019-04-01T05:28:49.487Z,-1.59
2019-04-01T05:29:49.476Z,-1.62
2019-04-01T05:30:49.471Z,-1.46
2019-04-01T05:31:49.464Z,-1.45
2019-04-01T05:32:49.450Z,-1.42
2019-04-01T05:33:55.717Z,-1.30
2019-04-01T05:34:50.428Z,-1.25
2019-04-01T05:35:49.415Z,-1.27
2019-04-01T05:36:49.413Z,-1.15
2019-04-01T05:37:49.395Z,-1.00
2019-04-01T05:38:49.382Z,-1.02
2019-04-01T05:39:49.373Z,-1.03
2019-04-01T05:40:49.364Z,-1.03
2019-04-01T05:41:49.367Z,-1.02
2019-04-01T05:42:49.346Z,-0.89
2019-04-01T05:43:49.332Z,-0.95
2019-04-01T05:44:49.322Z,-0.89
2019-04-01T05:45:49.313Z,-0.81
2019-04-01T05:46:49.311Z,-0.65
2019-04-01T05:47:49.292Z,-0.47
2019-04-01T05:48:49.360Z,-0.34
2019-04-01T05:49:49.269Z,-0.05
2019-04-01T05:50:49.258Z,0.18
2019-04-01T05:51:49.257Z,0.30
2019-04-01T05:52:49.237Z,0.21
2019-04-01T05:53:49.229Z,0.20
2019-04-01T05:54:49.224Z,0.25
2019-04-01T05:55:49.205Z,0.25
2019-04-01T05:56:49.204Z,0.38
2019-04-01T05:57:49.184Z,0.52
2019-04-01T05:58:49.173Z,0.60
2019-04-01T05:59:49.169Z,0.70
2019-04-01T06:00:49.153Z,1.06
2019-04-01T06:01:49.151Z,1.39
2019-04-01T06:02:49.131Z,1.68
2019-04-01T06:03:49.121Z,1.82
2019-04-01T06:04:49.115Z,1.93
2019-04-01T06:05:49.104Z,2.19
2019-04-01T06:06:49.174Z,2.45
2019-04-01T06:07:49.079Z,2.88
2019-04-01T06:08:49.069Z,3.62
2019-04-01T06:09:49.057Z,3.97
2019-04-01T06:10:49.047Z,4.08
2019-04-01T06:11:49.045Z,4.24
2019-04-01T06:12:49.025Z,5.02
2019-04-01T06:13:49.091Z,6.07
2019-04-01T06:14:49.004Z,7.05
2019-04-01T06:15:48.994Z,7.63
2019-04-01T06:16:48.992Z,8.03
2019-04-01T06:17:48.977Z,8.57
2019-04-01T06:18:48.960Z,9.24
2019-04-01T06:19:48.951Z,9.57
2019-04-01T06:20:48.941Z,10.15
2019-04-01T06:21:48.947Z,10.53
2019-04-01T06:22:48.918Z,10.91
2019-04-01T06:23:48.916Z,11.29
2019-04-01T06:24:48.897Z,11.74
2019-04-01T06:25:48.886Z,11.86
2019-04-01T06:26:48.891Z,12.20
2019-04-01T06:27:48.864Z,12.37
2019-04-01T06:28:48.854Z,12.59
2019-04-01T06:29:48.850Z,12.75
2019-04-01T06:30:48.833Z,13.04
2019-04-01T06:31:48.834Z,13.15
2019-04-01T06:32:48.814Z,13.51
2019-04-01T06:33:48.809Z,13.63
2019-04-01T06:34:52.906Z,13.80
2019-04-01T06:35:48.786Z,14.04
2019-04-01T06:36:48.780Z,14.25
2019-04-01T06:37:48.759Z,14.38
2019-04-01T06:38:48.746Z,14.53
2019-04-01T06:39:48.740Z,14.69
2019-04-01T06:40:48.729Z,14.78
2019-04-01T06:41:48.727Z,14.68
2019-04-01T06:42:48.706Z,14.80
2019-04-01T06:43:48.696Z,14.80
2019-04-01T06:44:48.696Z,14.37
2019-04-01T06:45:48.678Z,14.49
2019-04-01T06:46:48.672Z,14.53
2019-04-01T06:47:48.665Z,14.81
2019-04-01T06:48:48.647Z,14.81
2019-04-01T06:49:48.632Z,15.13
2019-04-01T06:50:48.623Z,14.91
2019-04-01T06:51:48.623Z,15.03
2019-04-01T06:52:48.605Z,15.26
2019-04-01T06:53:48.592Z,15.13
2019-04-01T06:54:48.580Z,15.45
2019-04-01T06:55:48.570Z,15.54
2019-04-01T06:56:48.570Z,15.66
2019-04-01T06:57:48.555Z,15.92
2019-04-01T06:58:48.541Z,15.93
2019-04-01T06:59:48.531Z,15.57
2019-04-01T07:00:48.523Z,15.60
2019-04-01T07:01:48.519Z,15.54
2019-04-01T07:02:48.500Z,14.78
2019-04-01T07:03:48.490Z,14.20
2019-04-01T07:04:48.479Z,14.53
2019-04-01T07:05:48.468Z,14.94
2019-04-01T07:06:48.469Z,15.38
2019-04-01T07:07:48.450Z,15.36
2019-04-01T07:08:48.438Z,15.35
2019-04-01T07:09:50.697Z,15.52
2019-04-01T07:10:48.423Z,15.92
2019-04-01T07:11:48.420Z,16.42
2019-04-01T07:12:48.399Z,16.80
2019-04-01T07:13:48.388Z,16.80
2019-04-01T07:14:48.376Z,16.89
2019-04-01T07:15:48.371Z,16.58
2019-04-01T07:16:48.387Z,16.14
2019-04-01T07:17:48.348Z,15.68
2019-04-01T07:18:48.335Z,14.98
2019-04-01T07:19:48.325Z,14.12
2019-04-01T07:20:48.317Z,13.07
2019-04-01T07:21:48.310Z,12.52
2019-04-01T07:22:48.304Z,12.13
2019-04-01T07:23:48.282Z,11.83
2019-04-01T07:24:48.273Z,11.46
2019-04-01T07:25:48.262Z,10.88
2019-04-01T07:26:48.252Z,10.88
2019-04-01T07:27:48.336Z,11.59
2019-04-01T07:28:48.234Z,11.82
2019-04-01T07:29:48.220Z,11.46
2019-04-01T07:30:48.210Z,11.28
2019-04-01T07:31:48.199Z,10.18
2019-04-01T07:32:48.197Z,9.79
2019-04-01T07:33:48.178Z,10.07
2019-04-01T07:34:48.172Z,10.30
2019-04-01T07:35:48.158Z,10.65
2019-04-01T07:36:48.146Z,10.55
2019-04-01T07:37:48.145Z,9.61
2019-04-01T07:38:48.130Z,9.71
2019-04-01T07:39:48.115Z,9.71
2019-04-01T07:40:48.110Z,9.31
2019-04-01T07:41:48.092Z,8.93
2019-04-01T07:42:48.091Z,8.75
2019-04-01T07:43:48.072Z,8.81
2019-04-01T07:44:48.063Z,8.72
2019-04-01T07:45:48.055Z,8.60
2019-04-01T07:46:48.046Z,8.22
2019-04-01T07:47:51.478Z,8.03
2019-04-01T07:48:48.019Z,8.10
2019-04-01T07:49:48.036Z,8.76
2019-04-01T07:50:47.999Z,9.25
2019-04-01T07:51:47.990Z,9.66
2019-04-01T07:52:47.991Z,9.76
2019-04-01T07:53:47.965Z,9.56
2019-04-01T07:54:47.953Z,9.60
2019-04-01T07:55:47.947Z,9.52
2019-04-01T07:56:47.936Z,9.04
2019-04-01T07:57:47.931Z,8.88
2019-04-01T07:58:47.911Z,8.71
2019-04-01T07:59:47.903Z,8.71
2019-04-01T08:00:47.891Z,8.47
2019-04-01T08:01:47.879Z,7.90
2019-04-01T08:02:49.092Z,7.72
2019-04-01T08:03:47.858Z,7.42
2019-04-01T08:04:47.848Z,7.13
2019-04-01T08:05:47.843Z,7.50
2019-04-01T08:06:47.827Z,7.69
2019-04-01T08:07:47.826Z,7.66
2019-04-01T08:08:47.804Z,7.67
2019-04-01T08:09:47.793Z,7.55
2019-04-01T08:10:47.781Z,7.44
2019-04-01T08:11:50.041Z,7.47
2019-04-01T08:12:47.769Z,7.69
2019-04-01T08:13:47.748Z,7.85
2019-04-01T08:14:47.737Z,7.56
2019-04-01T08:15:47.731Z,7.47
2019-04-01T08:16:47.719Z,7.37
2019-04-01T08:17:47.718Z,7.35
2019-04-01T08:18:47.697Z,7.31
2019-04-01T08:19:47.688Z,7.31
2019-04-01T08:20:47.741Z,7.22
2019-04-01T08:21:47.667Z,7.19
2019-04-01T08:22:47.661Z,7.32
2019-04-01T08:23:47.646Z,7.40
2019-04-01T08:24:47.635Z,7.44
2019-04-01T08:25:48.099Z,7.59
2019-04-01T08:26:47.612Z,7.71
2019-04-01T08:27:47.612Z,7.42
2019-04-01T08:28:47.590Z,7.27
2019-04-01T08:29:47.578Z,7.19
2019-04-01T08:30:47.569Z,7.24
2019-04-01T08:31:47.562Z,7.08
2019-04-01T08:32:47.554Z,7.20
2019-04-01T08:33:50.275Z,7.49
2019-04-01T08:34:47.528Z,7.67
2019-04-01T08:35:47.514Z,7.71
2019-04-01T08:36:47.504Z,7.81
2019-04-01T08:37:47.505Z,7.84
2019-04-01T08:38:47.486Z,7.93
2019-04-01T08:39:47.475Z,7.96
2019-04-01T08:40:47.459Z,7.82
2019-04-01T08:41:47.480Z,7.82
2019-04-01T08:42:49.038Z,7.78
2019-04-01T08:43:47.428Z,7.66
2019-04-01T08:44:47.418Z,7.81
2019-04-01T08:45:47.405Z,7.78
2019-04-01T08:46:47.395Z,7.78
2019-04-01T08:47:47.396Z,7.84
2019-04-01T08:48:47.376Z,7.78
2019-04-01T08:49:47.363Z,7.82
2019-04-01T08:50:47.356Z,7.90
2019-04-01T08:51:47.340Z,7.92
2019-04-01T08:52:47.344Z,8.12
2019-04-01T08:53:47.389Z,8.29
2019-04-01T08:54:47.311Z,8.18
2019-04-01T08:55:47.298Z,7.94
2019-04-01T08:56:47.291Z,7.87
2019-04-01T08:57:47.283Z,8.07
2019-04-01T08:58:47.265Z,8.07
2019-04-01T08:59:47.254Z,8.17
2019-04-01T09:00:47.248Z,8.22
2019-04-01T09:01:47.232Z,8.40
2019-04-01T09:02:47.238Z,8.26
2019-04-01T09:03:47.212Z,8.30
2019-04-01T09:04:47.201Z,8.22
2019-04-01T09:05:47.241Z,8.37
2019-04-01T09:06:47.180Z,8.39
2019-04-01T09:07:47.176Z,8.30
2019-04-01T09:08:47.158Z,8.29
2019-04-01T09:09:47.148Z,8.33
2019-04-01T09:10:47.140Z,8.40
2019-04-01T09:11:47.126Z,8.50
2019-04-01T09:12:47.123Z,8.57
2019-04-01T09:13:47.106Z,8.58
2019-04-01T09:14:47.096Z,8.87
2019-04-01T09:15:47.085Z,9.06
2019-04-01T09:16:47.071Z,9.18
2019-04-01T09:17:47.068Z,9.27
2019-04-01T09:18:47.049Z,9.25
2019-04-01T09:19:47.042Z,9.16
2019-04-01T09:20:47.027Z,9.04
2019-04-01T09:21:47.020Z,8.99
2019-04-01T09:22:47.023Z,8.66
2019-04-01T09:23:46.997Z,8.75
2019-04-01T09:24:46.986Z,8.91
2019-04-01T09:25:46.978Z,8.99
2019-04-01T09:26:46.965Z,9.20
2019-04-01T09:27:47.236Z,9.28
2019-04-01T09:28:46.942Z,9.28
2019-04-01T09:29:46.938Z,9.28
2019-04-01T09:30:46.924Z,9.25
2019-04-01T09:31:46.917Z,9.01
2019-04-01T09:32:46.901Z,8.71
2019-04-01T09:33:46.899Z,8.57
2019-04-01T09:34:46.877Z,8.48
2019-04-01T09:35:46.868Z,8.42
2019-04-01T09:36:46.937Z,8.51
2019-04-01T09:37:46.844Z,8.76
2019-04-01T09:38:46.843Z,9.12
2019-04-01T09:39:46.822Z,9.38
2019-04-01T09:40:46.815Z,9.68
2019-04-01T09:41:46.801Z,9.66
2019-04-01T09:42:46.802Z,9.56
2019-04-01T09:43:46.797Z,9.56
2019-04-01T09:44:46.769Z,9.52
2019-04-01T09:45:46.759Z,9.48
2019-04-01T09:46:49.038Z,9.30
2019-04-01T09:47:46.738Z,9.06
2019-04-01T09:48:46.741Z,9.23
2019-04-01T09:49:46.717Z,9.30
2019-04-01T09:50:46.708Z,9.28
2019-04-01T09:51:49.006Z,9.28
2019-04-01T09:52:46.684Z,9.39
2019-04-01T09:53:46.682Z,9.53
2019-04-01T09:54:46.671Z,9.64
2019-04-01T09:55:46.655Z,9.70
2019-04-01T09:56:46.643Z,9.66
2019-04-01T09:57:46.631Z,9.66
2019-04-01T09:58:46.633Z,9.53
2019-04-01T09:59:46.611Z,9.71
2019-04-01T10:00:46.606Z,9.60
2019-04-01T10:01:46.589Z,9.75
2019-04-01T10:02:46.580Z,9.73
2019-04-01T10:03:46.580Z,10.04
2019-04-01T10:04:46.561Z,9.99
2019-04-01T10:05:46.550Z,10.03
2019-04-01T10:06:46.535Z,9.78
2019-04-01T10:07:46.651Z,9.63
2019-04-01T10:08:46.525Z,9.61
2019-04-01T10:09:46.503Z,9.63
2019-04-01T10:10:46.493Z,9.70
2019-04-01T10:11:46.483Z,9.78
2019-04-01T10:12:46.472Z,9.83
2019-04-01T10:13:46.469Z,9.71
2019-04-01T10:14:46.450Z,9.70
2019-04-01T10:15:46.441Z,9.61
2019-04-01T10:16:46.429Z,9.53
2019-04-01T10:17:46.420Z,9.81
2019-04-01T10:18:46.419Z,10.06
2019-04-01T10:19:46.396Z,10.17
2019-04-01T10:20:46.386Z,10.09
2019-04-01T10:21:46.376Z,10.22
2019-04-01T10:22:46.366Z,10.22
2019-04-01T10:23:46.365Z,10.24
2019-04-01T10:24:46.343Z,10.24
2019-04-01T10:25:46.333Z,10.22
2019-04-01T10:26:46.323Z,10.07
2019-04-01T10:27:46.314Z,9.81
2019-04-01T10:28:46.314Z,9.73
2019-04-01T10:29:46.294Z,9.71
2019-04-01T10:30:46.281Z,9.76
2019-04-01T10:31:46.270Z,9.94
2019-04-01T10:32:46.260Z,9.73
2019-04-01T10:33:46.256Z,9.61
2019-04-01T10:34:46.240Z,9.42
2019-04-01T10:35:46.230Z,9.15
2019-04-01T10:36:46.218Z,9.23
2019-04-01T10:37:46.206Z,9.39
2019-04-01T10:38:46.862Z,9.70
2019-04-01T10:39:46.187Z,10.14
2019-04-01T10:40:46.177Z,10.42
2019-04-01T10:41:46.170Z,10.63
2019-04-01T10:42:46.154Z,10.43
2019-04-01T10:43:46.156Z,10.34
2019-04-01T10:44:46.131Z,10.43
2019-04-01T10:45:46.123Z,10.56
2019-04-01T10:46:46.161Z,10.63
2019-04-01T10:47:46.106Z,10.66
2019-04-01T10:48:46.111Z,10.62
2019-04-01T10:49:46.274Z,10.58
2019-04-01T10:50:46.076Z,10.40
2019-04-01T10:51:46.080Z,10.40
2019-04-01T10:52:46.052Z,10.37
2019-04-01T10:53:46.117Z,10.17
2019-04-01T10:54:46.086Z,10.30
2019-04-01T10:55:46.057Z,10.32
2019-04-01T10:56:46.007Z,10.21
2019-04-01T10:57:46.030Z,10.33
2019-04-01T10:58:46.049Z,10.26
2019-04-01T10:59:46.060Z,10.46
2019-04-01T11:00:45.998Z,10.84
2019-04-01T11:01:46.012Z,10.84
2019-04-01T11:02:45.970Z,10.86
2019-04-01T11:03:45.977Z,10.78
2019-04-01T11:04:45.950Z,10.47
2019-04-01T11:05:45.940Z,10.70
2019-04-01T11:06:45.942Z,10.66
2019-04-01T11:07:45.900Z,10.60
2019-04-01T11:08:45.910Z,10.63
2019-04-01T11:09:45.867Z,10.65
2019-04-01T11:10:45.863Z,10.58
2019-04-01T11:11:45.853Z,10.65
2019-04-01T11:12:45.836Z,10.74
2019-04-01T11:13:45.835Z,10.66
2019-04-01T11:14:45.813Z,10.55
2019-04-01T11:15:45.802Z,10.43
2019-04-01T11:16:46.272Z,10.28
2019-04-01T11:17:45.782Z,10.43
2019-04-01T11:18:45.777Z,10.44
2019-04-01T11:19:45.758Z,10.43
2019-04-01T11:20:45.750Z,10.58
2019-04-01T11:21:45.752Z,10.51
2019-04-01T11:22:45.734Z,10.51
2019-04-01T11:23:45.727Z,10.58
2019-04-01T11:24:45.704Z,10.68
2019-04-01T11:25:45.692Z,10.65
2019-04-01T11:26:45.688Z,10.71
2019-04-01T11:27:45.672Z,10.77
2019-04-01T11:28:45.671Z,10.77
2019-04-01T11:29:45.664Z,10.78
2019-04-01T11:30:45.680Z,10.58
2019-04-01T11:31:45.630Z,10.44
2019-04-01T11:32:45.682Z,10.44
2019-04-01T11:33:45.663Z,10.59
2019-04-01T11:34:45.637Z,10.73
2019-04-01T11:35:45.985Z,10.59
2019-04-01T11:36:45.577Z,10.43
2019-04-01T11:37:45.565Z,10.33
2019-04-01T11:38:45.609Z,10.32
2019-04-01T11:39:45.542Z,10.30
2019-04-01T11:40:45.548Z,10.40
2019-04-01T11:41:45.518Z,10.40
2019-04-01T11:42:45.557Z,10.59
2019-04-01T11:43:45.551Z,10.59
2019-04-01T11:44:45.535Z,10.63
2019-04-01T11:45:45.482Z,10.71
2019-04-01T11:46:45.495Z,10.62
2019-04-01T11:47:45.521Z,10.81
2019-04-01T11:48:45.510Z,10.99
2019-04-01T11:49:45.465Z,11.02
2019-04-01T11:50:47.729Z,10.99
2019-04-01T11:51:45.450Z,10.80
2019-04-01T11:52:45.456Z,10.77
2019-04-01T11:53:45.385Z,10.80
2019-04-01T11:54:45.383Z,11.09
2019-04-01T11:55:45.364Z,11.20
2019-04-01T11:56:45.356Z,11.11
2019-04-01T11:57:45.343Z,11.16
2019-04-01T11:58:45.331Z,11.10
2019-04-01T11:59:45.348Z,10.98
2019-04-01T12:00:45.309Z,10.96
2019-04-01T12:01:45.296Z,10.89
2019-04-01T12:02:46.079Z,10.71
2019-04-01T12:03:45.276Z,10.71
2019-04-01T12:04:45.278Z,10.92
2019-04-01T12:05:45.254Z,10.98
2019-04-01T12:06:45.245Z,11.11
2019-04-01T12:07:45.251Z,11.01
2019-04-01T12:08:45.222Z,11.02
2019-04-01T12:09:45.226Z,11.34
2019-04-01T12:10:45.198Z,11.50
2019-04-01T12:11:45.188Z,11.57
2019-04-01T12:12:45.176Z,11.61
2019-04-01T12:13:45.165Z,11.50
2019-04-01T12:14:45.168Z,11.38
2019-04-01T12:15:45.144Z,11.21
2019-04-01T12:16:45.131Z,11.11
2019-04-01T12:17:45.122Z,10.95
2019-04-01T12:18:45.115Z,10.89
2019-04-01T12:19:45.115Z,11.21
2019-04-01T12:20:45.087Z,11.34
2019-04-01T12:21:45.076Z,11.32
2019-04-01T12:22:45.914Z,11.44
2019-04-01T12:23:45.055Z,11.52
2019-04-01T12:24:45.051Z,11.65
2019-04-01T12:25:45.036Z,11.49
2019-04-01T12:26:45.021Z,11.29
2019-04-01T12:27:45.349Z,11.38
2019-04-01T12:28:44.998Z,11.62
2019-04-01T12:29:48.146Z,11.35
2019-04-01T12:30:44.984Z,11.14
2019-04-01T12:31:44.966Z,11.10
2019-04-01T12:32:45.004Z,11.14
2019-04-01T12:33:44.950Z,11.20
2019-04-01T12:34:45.909Z,11.27
2019-04-01T12:35:44.923Z,11.29
2019-04-01T12:36:44.914Z,11.21
2019-04-01T12:37:45.769Z,11.25
2019-04-01T12:38:44.892Z,11.46
2019-04-01T12:39:44.888Z,11.47
2019-04-01T12:40:44.867Z,11.52
2019-04-01T12:41:44.858Z,11.53
2019-04-01T12:42:46.411Z,11.61
2019-04-01T12:43:44.842Z,11.75
2019-04-01T12:44:44.831Z,11.72
2019-04-01T12:45:44.812Z,11.49
2019-04-01T12:46:44.804Z,11.38
2019-04-01T12:47:44.792Z,11.16
2019-04-01T12:48:44.788Z,11.01
2019-04-01T12:49:44.780Z,11.14
2019-04-01T12:50:44.846Z,11.20
2019-04-01T12:51:44.748Z,11.21
2019-04-01T12:52:44.738Z,11.31
2019-04-01T12:53:45.187Z,11.32
2019-04-01T12:54:44.961Z,11.25
2019-04-01T12:55:45.073Z,11.14
2019-04-01T12:56:44.692Z,11.24
2019-04-01T12:57:48.178Z,11.21
2019-04-01T12:58:44.675Z,11.25
2019-04-01T12:59:45.999Z,11.11
2019-04-01T13:00:44.648Z,11.13
2019-04-01T13:01:44.642Z,11.20
2019-04-01T13:02:44.626Z,11.34
2019-04-01T13:03:44.614Z,11.44
2019-04-01T13:04:44.617Z,11.75
2019-04-01T13:05:44.595Z,11.86
2019-04-01T13:06:44.583Z,12.15
2019-04-01T13:07:44.570Z,12.05
2019-04-01T13:08:44.559Z,12.04
2019-04-01T13:09:44.559Z,12.01
2019-04-01T13:10:44.539Z,12.12
2019-04-01T13:11:44.533Z,11.99
2019-04-01T13:12:44.518Z,12.05
2019-04-01T13:13:44.783Z,12.04
2019-04-01T13:14:44.502Z,11.78
2019-04-01T13:15:44.489Z,11.68
2019-04-01T13:16:44.472Z,11.72
2019-04-01T13:17:44.461Z,11.67
2019-04-01T13:18:44.451Z,11.57
2019-04-01T13:19:45.042Z,11.71
2019-04-01T13:20:44.430Z,11.87
2019-04-01T13:21:44.421Z,11.90
2019-04-01T13:22:44.490Z,11.75
2019-04-01T13:23:44.394Z,11.71
2019-04-01T13:24:44.393Z,11.70
2019-04-01T13:25:44.376Z,11.72
2019-04-01T13:26:44.363Z,11.65
2019-04-01T13:27:44.353Z,11.61
2019-04-01T13:28:44.348Z,11.71
2019-04-01T13:29:44.371Z,11.77
2019-04-01T13:30:44.322Z,11.53
2019-04-01T13:31:44.312Z,11.64
2019-04-01T13:32:44.297Z,11.61
2019-04-01T13:33:44.955Z,11.57
2019-04-01T13:34:44.279Z,11.83
2019-04-01T13:35:44.275Z,11.97
2019-04-01T13:36:44.254Z,12.12
2019-04-01T13:37:44.242Z,12.06
2019-04-01T13:38:44.419Z,12.19
2019-04-01T13:39:44.220Z,12.21
2019-04-01T13:40:44.708Z,12.11
2019-04-01T13:41:44.419Z,12.15
2019-04-01T13:42:44.205Z,12.11
2019-04-01T13:43:44.177Z,12.09
2019-04-01T13:44:44.166Z,12.02
2019-04-01T13:45:44.164Z,11.99
2019-04-01T13:46:44.146Z,12.09
2019-04-01T13:47:44.133Z,12.19
2019-04-01T13:48:56.912Z,12.33
2019-04-01T13:49:45.117Z,12.30
2019-04-01T13:50:44.112Z,12.42
2019-04-01T13:51:44.095Z,12.20
2019-04-01T13:52:44.078Z,12.05
2019-04-01T13:53:44.068Z,11.78
2019-04-01T13:54:44.059Z,11.72
2019-04-01T13:55:44.056Z,11.82
2019-04-01T13:56:44.035Z,11.96
2019-04-01T13:57:44.032Z,12.04
2019-04-01T13:58:44.014Z,12.08
2019-04-01T13:59:49.332Z,12.06
2019-04-01T14:00:45.004Z,12.11
2019-04-01T14:01:43.981Z,12.21
2019-04-01T14:02:43.975Z,12.06
2019-04-01T14:03:43.969Z,11.89
2019-04-01T14:04:43.966Z,11.78
2019-04-01T14:05:43.948Z,11.57
2019-04-01T14:06:43.927Z,11.47
2019-04-01T14:07:43.916Z,11.44
2019-04-01T14:08:43.905Z,11.70
2019-04-01T14:09:43.896Z,11.82
2019-04-01T14:10:43.895Z,11.71
2019-04-01T14:11:43.937Z,11.77
2019-04-01T14:12:43.864Z,11.75
2019-04-01T14:13:43.852Z,11.72
2019-04-01T14:14:43.844Z,11.85
2019-04-01T14:15:43.842Z,11.94
2019-04-01T14:16:43.825Z,12.04
2019-04-01T14:17:43.809Z,12.15
2019-04-01T14:18:43.801Z,12.15
2019-04-01T14:19:43.787Z,12.06
2019-04-01T14:20:43.784Z,12.13
2019-04-01T14:21:43.764Z,12.06
2019-04-01T14:22:44.497Z,12.01
2019-04-01T14:23:43.743Z,12.01
2019-04-01T14:24:45.247Z,11.99
2019-04-01T14:25:43.733Z,11.96
2019-04-01T14:26:43.715Z,11.90
2019-04-01T14:27:43.698Z,11.96
2019-04-01T14:28:43.689Z,12.16
2019-04-01T14:29:43.680Z,12.12
2019-04-01T14:30:43.680Z,12.01
2019-04-01T14:31:43.662Z,12.05
2019-04-01T14:32:43.644Z,12.15
2019-04-01T14:33:43.634Z,12.04
2019-04-01T14:34:43.627Z,11.90
2019-04-01T14:35:45.316Z,11.71
2019-04-01T14:36:43.648Z,11.78
2019-04-01T14:37:43.590Z,11.89
2019-04-01T14:38:43.580Z,11.96
2019-04-01T14:39:43.572Z,11.77
2019-04-01T14:40:43.570Z,11.71
2019-04-01T14:41:43.548Z,11.74
2019-04-01T14:42:46.193Z,11.78
2019-04-01T14:43:43.529Z,11.86
2019-04-01T14:44:43.515Z,11.89
2019-04-01T14:45:43.515Z,11.89
2019-04-01T14:46:43.495Z,11.71
2019-04-01T14:47:56.709Z,11.71
2019-04-01T14:48:44.469Z,11.67
2019-04-01T14:49:43.464Z,11.68
2019-04-01T14:50:43.459Z,11.71
2019-04-01T14:51:43.458Z,11.77
2019-04-01T14:52:43.428Z,11.82
2019-04-01T14:53:43.421Z,11.94
2019-04-01T14:54:43.409Z,11.89
2019-04-01T14:55:43.409Z,11.96
2019-04-01T14:56:43.383Z,12.12
2019-04-01T14:57:43.374Z,12.11
2019-04-01T14:58:43.362Z,12.19
2019-04-01T14:59:43.349Z,12.19
2019-04-01T15:00:43.349Z,12.20
2019-04-01T15:01:43.332Z,12.27
2019-04-01T15:02:43.318Z,12.24
2019-04-01T15:03:43.306Z,12.24
2019-04-01T15:04:43.298Z,12.05
2019-04-01T15:05:43.294Z,12.06
2019-04-01T15:06:43.275Z,12.06
2019-04-01T15:07:43.269Z,12.09
2019-04-01T15:08:43.252Z,12.05
2019-04-01T15:09:43.243Z,11.96
2019-04-01T15:10:44.047Z,12.02
2019-04-01T15:11:43.219Z,12.02
2019-04-01T15:12:43.227Z,12.08
2019-04-01T15:13:43.199Z,12.15
2019-04-01T15:14:43.194Z,11.96
2019-04-01T15:15:43.183Z,11.77
2019-04-01T15:16:43.165Z,11.80
2019-04-01T15:17:43.159Z,11.70
2019-04-01T15:18:43.149Z,11.72
2019-04-01T15:19:43.130Z,11.74
2019-04-01T15:20:43.145Z,11.61
2019-04-01T15:21:43.111Z,11.67
2019-04-01T15:22:43.106Z,11.65
2019-04-01T15:23:43.089Z,11.65
2019-04-01T15:24:43.079Z,11.74
2019-04-01T15:25:43.068Z,11.67
2019-04-01T15:26:43.068Z,11.54
2019-04-01T15:27:43.047Z,11.44
2019-04-01T15:28:43.032Z,11.38
2019-04-01T15:29:43.023Z,11.36
2019-04-01T15:30:43.010Z,11.46
2019-04-01T15:31:43.009Z,11.39
2019-04-01T15:32:42.990Z,11.34
2019-04-01T15:33:42.979Z,11.36
2019-04-01T15:34:42.965Z,11.34
2019-04-01T15:35:42.961Z,11.44
2019-04-01T15:36:42.960Z,11.41
2019-04-01T15:37:42.935Z,11.49
2019-04-01T15:38:43.041Z,11.46
2019-04-01T15:39:42.915Z,11.44
2019-04-01T15:40:42.904Z,11.38
2019-04-01T15:41:42.907Z,11.32
2019-04-01T15:42:43.225Z,11.27
2019-04-01T15:43:42.869Z,11.25
2019-04-01T15:44:42.856Z,11.07
2019-04-01T15:45:42.846Z,11.16
2019-04-01T15:46:42.845Z,11.19
2019-04-01T15:47:42.825Z,11.19
2019-04-01T15:48:42.812Z,11.25
2019-04-01T15:49:42.802Z,11.11
2019-04-01T15:50:42.791Z,11.17
2019-04-01T15:51:42.791Z,11.09
2019-04-01T15:52:42.773Z,10.94
2019-04-01T15:53:42.759Z,11.01
2019-04-01T15:54:42.746Z,11.01
2019-04-01T15:55:42.736Z,11.03
2019-04-01T15:56:42.732Z,11.02
2019-04-01T15:57:42.713Z,11.01
2019-04-01T15:58:42.707Z,11.07
2019-04-01T15:59:42.692Z,11.01
2019-04-01T16:00:42.683Z,11.06
2019-04-01T16:01:42.680Z,10.98
2019-04-01T16:02:42.662Z,10.99
2019-04-01T16:03:42.653Z,10.96
2019-04-01T16:04:42.635Z,10.88
2019-04-01T16:05:42.626Z,10.84
2019-04-01T16:06:42.625Z,10.89
2019-04-01T16:07:42.605Z,10.77
2019-04-01T16:08:42.594Z,10.80
2019-04-01T16:09:42.586Z,10.86
2019-04-01T16:10:42.574Z,10.80
2019-04-01T16:11:42.573Z,10.77
2019-04-01T16:12:42.555Z,10.77
2019-04-01T16:13:43.174Z,10.84
2019-04-01T16:14:42.532Z,10.86
2019-04-01T16:15:42.521Z,10.71
2019-04-01T16:16:42.542Z,10.71
2019-04-01T16:17:42.498Z,10.73
2019-04-01T16:18:42.488Z,10.71
2019-04-01T16:19:42.475Z,10.65
2019-04-01T16:20:42.466Z,10.68
2019-04-01T16:21:42.461Z,10.60
2019-04-01T16:22:43.793Z,10.65
2019-04-01T16:23:42.434Z,10.56
2019-04-01T16:24:42.425Z,10.56
2019-04-01T16:25:42.414Z,10.60
2019-04-01T16:26:42.401Z,10.47
2019-04-01T16:27:43.052Z,10.47
2019-04-01T16:28:42.386Z,10.53
2019-04-01T16:29:42.372Z,10.43
2019-04-01T16:30:42.360Z,10.40
2019-04-01T16:31:42.350Z,10.40
2019-04-01T16:32:42.351Z,10.36
2019-04-01T16:33:42.334Z,10.32
2019-04-01T16:34:42.447Z,10.32
2019-04-01T16:35:42.316Z,10.34
2019-04-01T16:36:42.296Z,10.28
2019-04-01T16:37:42.297Z,10.32
2019-04-01T16:38:42.281Z,10.24
2019-04-01T16:39:42.269Z,10.39
2019-04-01T16:40:42.257Z,10.21
2019-04-01T16:41:42.243Z,10.21
2019-04-01T16:42:42.241Z,10.30
2019-04-01T16:43:42.225Z,10.19
2019-04-01T16:44:42.268Z,10.14
2019-04-01T16:45:43.092Z,10.14
2019-04-01T16:46:42.195Z,10.04
2019-04-01T16:47:42.190Z,10.18
2019-04-01T16:48:42.173Z,10.06
2019-04-01T16:49:42.163Z,9.94
2019-04-01T16:50:42.156Z,9.91
2019-04-01T16:51:42.143Z,9.91